JIGSW02 EGVN-EGNQ

Flight info

Callsign JIGSW02
Flight time N/A
Altitude 5000
Route EGHQ
Aircraft A400/H-VGD/C

Departure

Time 2026-04-28 18:34
Airport RAF Brize Norton (EGVN)

Arrival

Time N/A
Airport EGNQ
Time Latitude Longitude Altitude Speed Heading
2026-04-28 18:26 51.75597 -1.57536 273 ft 0 kts 108°
2026-04-28 18:29 51.75593 -1.57430 273 ft 16 kts 62°
2026-04-28 18:29 51.75655 -1.57408 273 ft 11 kts 17°
2026-04-28 18:30 51.75728 -1.57370 275 ft 11 kts 17°
2026-04-28 18:30 51.75754 -1.57354 273 ft 12 kts 19°
2026-04-28 18:30 51.75875 -1.57292 273 ft 8 kts 13°
2026-04-28 18:30 51.75928 -1.57343 273 ft 14 kts 297°
2026-04-28 18:31 51.75930 -1.57465 273 ft 13 kts 256°
2026-04-28 18:31 51.75917 -1.57498 273 ft 15 kts 226°
2026-04-28 18:31 51.75822 -1.57559 273 ft 18 kts 198°
2026-04-28 18:31 51.75699 -1.57621 273 ft 18 kts 197°
2026-04-28 18:32 51.75606 -1.57669 273 ft 14 kts 196°
2026-04-28 18:32 51.75557 -1.57701 275 ft 10 kts 210°
2026-04-28 18:32 51.75482 -1.57766 273 ft 15 kts 205°
2026-04-28 18:32 51.75368 -1.57851 274 ft 20 kts 204°
2026-04-28 18:33 51.75241 -1.57970 273 ft 16 kts 207°
2026-04-28 18:33 51.75220 -1.57988 274 ft 6 kts 207°
2026-04-28 18:33 51.75156 -1.58042 275 ft 15 kts 209°
2026-04-28 18:33 51.75056 -1.58131 275 ft 14 kts 196°
2026-04-28 18:34 51.75037 -1.58103 277 ft 0 kts 75°
2026-04-28 18:34 51.75111 -1.57686 277 ft 94 kts 74°
2026-04-28 18:34 51.75379 -1.56227 486 ft 164 kts 76°
2026-04-28 18:34 51.75516 -1.54232 1052 ft 194 kts 96°
2026-04-28 18:35 51.74807 -1.52264 1854 ft 225 kts 148°
2026-04-28 18:35 51.73241 -1.51769 2170 ft 238 kts 183°
2026-04-28 18:35 51.71570 -1.52127 2058 ft 240 kts 196°
2026-04-28 18:35 51.69978 -1.52608 1905 ft 227 kts 190°
2026-04-28 18:36 51.68401 -1.53028 1796 ft 239 kts 191°
2026-04-28 18:36 51.66694 -1.53521 1769 ft 259 kts 192°
2026-04-28 18:36 51.64870 -1.54103 1717 ft 283 kts 193°
2026-04-28 18:36 51.62821 -1.54867 1589 ft 319 kts 196°
2026-04-28 18:37 51.60702 -1.55905 1344 ft 319 kts 201°
2026-04-28 18:37 51.58700 -1.57117 1121 ft 293 kts 203°
2026-04-28 18:37 51.56928 -1.58384 1290 ft 267 kts 207°
2026-04-28 18:37 51.55307 -1.59815 1588 ft 266 kts 217°
2026-04-28 18:38 51.53832 -1.61676 1701 ft 273 kts 223°
2026-04-28 18:38 51.52375 -1.63676 1758 ft 277 kts 224°
2026-04-28 18:38 51.51000 -1.65832 1630 ft 276 kts 228°
2026-04-28 18:38 51.49598 -1.67919 1613 ft 268 kts 225°
2026-04-28 18:39 51.48340 -1.69902 1665 ft 239 kts 228°
2026-04-28 18:39 51.47214 -1.71809 1755 ft 237 kts 232°
2026-04-28 18:39 51.46088 -1.73876 1788 ft 258 kts 232°
2026-04-28 18:39 51.44928 -1.76274 1743 ft 282 kts 236°
2026-04-28 18:40 51.43769 -1.78831 1721 ft 285 kts 238°
2026-04-28 18:40 51.42706 -1.81554 1676 ft 293 kts 242°
2026-04-28 18:40 51.41701 -1.84465 1765 ft 303 kts 245°
2026-04-28 18:40 51.40774 -1.87489 1837 ft 300 kts 246°
2026-04-28 18:41 51.39865 -1.90339 1860 ft 280 kts 246°
2026-04-28 18:41 51.38994 -1.93042 1857 ft 272 kts 245°
2026-04-28 18:41 51.38132 -1.95755 1886 ft 271 kts 246°
2026-04-28 18:41 51.37276 -1.98414 1876 ft 267 kts 246°
2026-04-28 18:42 51.36420 -2.01052 1915 ft 267 kts 245°
2026-04-28 18:42 51.35555 -2.03675 1913 ft 265 kts 244°
2026-04-28 18:42 51.34693 -2.06320 1847 ft 270 kts 245°
2026-04-28 18:42 51.33836 -2.08946 1776 ft 262 kts 245°
2026-04-28 18:43 51.32983 -2.11521 1834 ft 269 kts 244°
2026-04-28 18:43 51.32095 -2.14187 1839 ft 273 kts 246°
2026-04-28 18:43 51.31214 -2.16882 1852 ft 272 kts 245°
2026-04-28 18:43 51.30343 -2.19505 1884 ft 264 kts 246°
2026-04-28 18:44 51.29492 -2.22106 1876 ft 264 kts 246°
2026-04-28 18:44 51.27739 -2.27382 1883 ft 270 kts 245°
2026-04-28 18:44 51.26903 -2.30022 1925 ft 264 kts 247°
2026-04-28 18:45 51.26064 -2.32633 1882 ft 264 kts 243°
2026-04-28 18:45 51.25144 -2.35192 1825 ft 265 kts 245°
2026-04-28 18:45 51.24284 -2.37795 1863 ft 267 kts 244°
2026-04-28 18:45 51.23390 -2.40339 1890 ft 266 kts 243°
2026-04-28 18:46 51.22514 -2.42887 1845 ft 258 kts 247°
2026-04-28 18:46 51.21796 -2.45479 1842 ft 253 kts 250°
2026-04-28 18:46 51.21161 -2.48144 1846 ft 261 kts 252°
2026-04-28 18:46 51.20489 -2.50862 1844 ft 266 kts 251°
2026-04-28 18:47 51.19752 -2.53606 1844 ft 271 kts 248°
2026-04-28 18:47 51.19013 -2.56369 1848 ft 270 kts 250°
2026-04-28 18:47 51.18318 -2.59100 1836 ft 262 kts 250°
2026-04-28 18:47 51.17632 -2.61802 1837 ft 263 kts 251°
2026-04-28 18:48 51.16955 -2.64491 1829 ft 265 kts 251°
2026-04-28 18:48 51.16262 -2.67198 1828 ft 262 kts 250°
2026-04-28 18:48 51.15566 -2.69880 1839 ft 262 kts 250°
2026-04-28 18:48 51.14871 -2.72558 1834 ft 262 kts 250°
2026-04-28 18:49 51.14178 -2.75236 1829 ft 261 kts 251°
2026-04-28 18:49 51.13726 -2.77023 1825 ft 262 kts 251°
2026-04-28 18:49 51.12812 -2.80616 1827 ft 261 kts 250°
2026-04-28 18:49 51.12119 -2.83300 1830 ft 261 kts 250°
2026-04-28 18:50 51.11430 -2.85972 1830 ft 262 kts 251°
2026-04-28 18:50 51.10748 -2.88686 1834 ft 264 kts 251°
2026-04-28 18:50 51.10068 -2.91407 1838 ft 265 kts 251°
2026-04-28 18:50 51.09397 -2.94074 1831 ft 261 kts 250°
2026-04-28 18:51 51.08691 -2.96723 1836 ft 260 kts 249°
2026-04-28 18:51 51.07977 -2.99361 1834 ft 259 kts 249°
2026-04-28 18:51 51.07263 -3.02000 1829 ft 259 kts 250°
2026-04-28 18:51 51.06574 -3.04658 1835 ft 261 kts 251°
2026-04-28 18:52 51.05894 -3.07336 1835 ft 261 kts 251°
2026-04-28 18:52 51.05202 -3.10011 1837 ft 261 kts 250°
2026-04-28 18:52 51.04497 -3.12667 1835 ft 260 kts 250°
2026-04-28 18:52 51.03789 -3.15314 1832 ft 260 kts 250°
2026-04-28 18:53 51.03097 -3.17956 1831 ft 259 kts 249°
2026-04-28 18:53 51.02402 -3.20599 1830 ft 258 kts 250°
2026-04-28 18:53 51.01707 -3.23232 1839 ft 259 kts 250°
2026-04-28 18:53 51.01010 -3.25863 1835 ft 259 kts 250°
2026-04-28 18:54 51.00321 -3.28467 1832 ft 258 kts 250°
2026-04-28 18:54 50.99645 -3.31104 1830 ft 258 kts 251°
2026-04-28 18:54 50.98957 -3.33748 1828 ft 260 kts 250°
2026-04-28 18:54 50.98255 -3.36394 1824 ft 260 kts 250°
2026-04-28 18:55 50.97526 -3.39030 1830 ft 263 kts 249°
2026-04-28 18:55 50.97030 -3.40796 1831 ft 264 kts 250°
2026-04-28 18:55 50.96051 -3.44389 1838 ft 266 kts 250°
2026-04-28 18:55 50.95323 -3.47045 1828 ft 259 kts 250°
2026-04-28 18:56 50.94616 -3.49651 1830 ft 255 kts 251°
2026-04-28 18:56 50.93920 -3.52227 1815 ft 253 kts 250°
2026-04-28 18:56 50.93227 -3.54799 1825 ft 256 kts 251°
2026-04-28 18:56 50.92515 -3.57406 1825 ft 258 kts 251°
2026-04-28 18:57 50.91797 -3.60030 1825 ft 261 kts 251°
2026-04-28 18:57 50.91072 -3.62682 1826 ft 263 kts 251°
2026-04-28 18:57 50.90344 -3.65352 1830 ft 266 kts 251°
2026-04-28 18:57 50.89607 -3.68040 1833 ft 266 kts 250°
2026-04-28 18:58 50.88840 -3.70748 1873 ft 277 kts 250°
2026-04-28 18:58 50.88043 -3.73517 1888 ft 270 kts 249°
2026-04-28 18:58 50.87291 -3.76193 1908 ft 264 kts 251°
2026-04-28 18:58 50.86567 -3.78822 1907 ft 262 kts 250°
2026-04-28 18:59 50.85835 -3.81460 1895 ft 262 kts 250°
2026-04-28 18:59 50.85086 -3.84091 1909 ft 262 kts 250°
2026-04-28 18:59 50.84335 -3.86723 1903 ft 263 kts 250°
2026-04-28 18:59 50.83582 -3.89360 1896 ft 262 kts 250°
2026-04-28 19:00 50.82833 -3.91996 1907 ft 262 kts 250°
2026-04-28 19:00 50.82116 -3.94663 1910 ft 266 kts 250°
2026-04-28 19:00 50.81400 -3.97380 1917 ft 268 kts 250°
2026-04-28 19:00 50.80671 -4.00073 1880 ft 260 kts 250°
2026-04-28 19:01 50.79953 -4.02692 1871 ft 263 kts 250°
2026-04-28 19:01 50.79210 -4.05372 1868 ft 268 kts 249°
2026-04-28 19:01 50.78446 -4.08034 1872 ft 265 kts 248°
2026-04-28 19:01 50.77691 -4.10689 1868 ft 264 kts 249°
2026-04-28 19:02 50.76932 -4.13316 1866 ft 261 kts 249°
2026-04-28 19:02 50.76183 -4.15919 1866 ft 259 kts 249°
2026-04-28 19:02 50.75444 -4.18530 1895 ft 262 kts 250°
2026-04-28 19:02 50.74774 -4.21204 1916 ft 269 kts 253°
2026-04-28 19:03 50.74092 -4.23987 1918 ft 272 kts 252°
2026-04-28 19:03 50.73420 -4.26783 1915 ft 272 kts 253°
2026-04-28 19:03 50.72725 -4.29583 1912 ft 277 kts 251°
2026-04-28 19:03 50.72010 -4.32430 1923 ft 281 kts 251°
2026-04-28 19:04 50.71295 -4.35296 1919 ft 280 kts 251°
2026-04-28 19:04 50.70581 -4.38167 1923 ft 283 kts 252°
2026-04-28 19:04 50.69880 -4.41063 1939 ft 283 kts 252°
2026-04-28 19:04 50.69190 -4.43974 1939 ft 283 kts 252°
2026-04-28 19:05 50.68328 -4.46749 1922 ft 283 kts 240°
2026-04-28 19:05 50.67217 -4.49260 1915 ft 282 kts 236°
2026-04-28 19:05 50.66097 -4.51799 1968 ft 282 kts 238°
2026-04-28 19:05 50.64988 -4.54352 1922 ft 281 kts 237°
2026-04-28 19:06 50.63876 -4.56897 1925 ft 282 kts 237°
2026-04-28 19:06 50.63134 -4.58583 1927 ft 283 kts 236°
2026-04-28 19:06 50.61599 -4.62033 1926 ft 290 kts 236°
2026-04-28 19:06 50.60430 -4.64637 1928 ft 292 kts 236°
2026-04-28 19:07 50.59247 -4.67177 1938 ft 284 kts 232°
2026-04-28 19:07 50.57874 -4.69413 1961 ft 287 kts 225°
2026-04-28 19:07 50.56372 -4.71559 1964 ft 293 kts 222°
2026-04-28 19:07 50.54866 -4.73626 1934 ft 287 kts 222°
2026-04-28 19:08 50.53297 -4.75548 2015 ft 285 kts 211°
2026-04-28 19:08 50.51543 -4.76903 1938 ft 275 kts 203°
2026-04-28 19:08 50.49785 -4.78092 1960 ft 275 kts 202°
2026-04-28 19:08 50.48015 -4.79257 1963 ft 275 kts 204°
2026-04-28 19:09 50.46245 -4.80432 1935 ft 276 kts 202°
2026-04-28 19:09 50.44476 -4.81577 1917 ft 275 kts 203°
2026-04-28 19:09 50.42723 -4.82700 2019 ft 274 kts 201°
2026-04-28 19:09 50.40958 -4.83814 2048 ft 275 kts 204°
2026-04-28 19:10 50.39656 -4.85833 2179 ft 269 kts 244°
2026-04-28 19:10 50.39381 -4.88628 2057 ft 260 kts 285°
2026-04-28 19:10 50.40140 -4.91133 1795 ft 256 kts 312°
2026-04-28 19:10 50.41243 -4.93256 1472 ft 248 kts 313°
2026-04-28 19:11 50.42347 -4.95330 1273 ft 249 kts 313°
2026-04-28 19:11 50.43307 -4.97597 1015 ft 251 kts 305°
2026-04-28 19:11 50.44237 -4.99912 910 ft 251 kts 305°
2026-04-28 19:11 50.44930 -5.02432 974 ft 252 kts 277°
2026-04-28 19:12 50.44337 -5.04822 1437 ft 237 kts 222°
2026-04-28 19:12 50.42842 -5.05484 1490 ft 226 kts 159°
2026-04-28 19:12 50.41738 -5.03957 1429 ft 221 kts 120°
2026-04-28 19:12 50.40871 -5.01957 1208 ft 222 kts 117°
2026-04-28 19:13 50.40224 -4.99805 1247 ft 217 kts 98°
2026-04-28 19:13 50.40298 -4.97570 1292 ft 191 kts 65°
2026-04-28 19:13 50.41034 -4.96046 1287 ft 166 kts 37°
2026-04-28 19:13 50.42016 -4.95375 1244 ft 145 kts
2026-04-28 19:14 50.42861 -4.95923 974 ft 135 kts 315°
2026-04-28 19:14 50.43179 -4.97231 414 ft 117 kts 305°
2026-04-28 19:14 50.43541 -4.98227 547 ft 125 kts 311°
2026-04-28 19:14 50.44019 -4.99393 373 ft 109 kts 303°
2026-04-28 19:15 50.44302 -5.00119 355 ft 52 kts 298°
2026-04-28 19:15 50.44457 -5.00533 344 ft 36 kts 301°
2026-04-28 19:15 50.44576 -5.00861 327 ft 34 kts 301°
2026-04-28 19:15 50.44616 -5.00967 327 ft 33 kts 301°
2026-04-28 19:16 50.44797 -5.01075 326 ft 7 kts 49°
2026-04-28 19:16 50.44806 -5.01015 327 ft 5 kts 89°
2026-04-28 19:16 50.44803 -5.00959 328 ft 6 kts 99°
2026-04-28 19:16 50.44791 -5.00900 328 ft 5 kts 114°
2026-04-28 19:17 50.44774 -5.00851 330 ft 5 kts 118°
2026-04-28 19:17 50.44757 -5.00804 328 ft 5 kts 121°
2026-04-28 19:17 50.44749 -5.00786 329 ft 0 kts 121°
2026-04-28 19:19 50.44742 -5.00768 329 ft 4 kts 122°
2026-04-28 19:19 50.44720 -5.00710 329 ft 7 kts 119°
2026-04-28 19:19 50.44698 -5.00650 334 ft 6 kts 120°
2026-04-28 19:20 50.44678 -5.00595 334 ft 6 kts 121°
2026-04-28 19:20 50.44645 -5.00511 337 ft 11 kts 120°
2026-04-28 19:20 50.44641 -5.00453 338 ft 5 kts 82°
2026-04-28 19:20 50.44644 -5.00388 345 ft 4 kts 108°
2026-04-28 19:21 50.44637 -5.00374 352 ft 1 kts 136°
2026-04-28 19:21 50.44642 -5.00379 345 ft 1 kts 128°
2026-04-28 19:21 50.44641 -5.00376 346 ft 0 kts 124°